Time;durP1;ratioP1;P1;durP2;ratioP2;P2;SDS_P1;SDS_P2;PMS_P1;PMS_P2;Temp;Humidity;BMP_temperature;BMP_pressure;BME280_temperature;BME280_humidity;BME280_pressure;Samples;Min_cycle;Max_cycle;Signal;HPM_P1;HPM_P2
2021/01/14 00:00:27;;;;;;;11.30;6.80;;;2.80;79.20;;;;;;5095606;28;20465;-88
2021/01/14 00:02:54;;;;;;;9.88;6.82;;;2.80;79.70;;;;;;5094191;28;20897;-88
2021/01/14 00:05:23;;;;;;;12.73;7.30;;;2.80;79.40;;;;;;5096048;28;20758;-88
2021/01/14 00:07:50;;;;;;;11.48;7.22;;;2.80;79.40;;;;;;5099033;27;20394;-88
2021/01/14 00:10:19;;;;;;;10.52;7.07;;;2.80;79.40;;;;;;5116282;27;21199;-89
2021/01/14 00:12:48;;;;;;;10.50;6.97;;;2.80;79.50;;;;;;5113033;27;20451;-89
2021/01/14 00:15:18;;;;;;;9.07;6.80;;;2.80;79.30;;;;;;5115890;27;20395;-89
2021/01/14 00:17:47;;;;;;;8.93;6.63;;;2.90;79.40;;;;;;5133793;27;20394;-89
2021/01/14 00:20:18;;;;;;;9.30;6.60;;;2.80;79.00;;;;;;5113027;28;20905;-88
2021/01/14 00:22:46;;;;;;;10.43;6.72;;;2.80;79.70;;;;;;5095785;28;20400;-89
2021/01/14 00:25:14;;;;;;;9.45;6.70;;;2.80;79.60;;;;;;5111646;28;20548;-88
2021/01/14 00:27:42;;;;;;;9.50;6.60;;;2.70;79.30;;;;;;5113337;28;20412;-89
2021/01/14 00:30:15;;;;;;;10.68;7.05;;;2.80;78.90;;;;;;5111636;28;20808;-89
2021/01/14 00:32:42;;;;;;;9.93;6.73;;;2.80;79.00;;;;;;5095350;28;20479;-89
2021/01/14 00:35:09;;;;;;;8.83;6.50;;;2.80;78.80;;;;;;5111301;28;20400;-88
2021/01/14 00:37:54;;;;;;;10.73;6.78;;;2.80;79.00;;;;;;5095914;28;20453;-88
2021/01/14 00:40:26;;;;;;;10.30;6.90;;;2.80;79.20;;;;;;5093130;28;20392;-88
2021/01/14 00:43:12;;;;;;;9.25;6.55;;;2.70;79.60;;;;;;5095510;28;20408;-89
2021/01/14 00:45:39;;;;;;;10.48;6.72;;;2.70;79.90;;;;;;5105272;28;20409;-89
2021/01/14 00:48:06;;;;;;;8.82;6.53;;;2.70;79.80;;;;;;5115977;28;20391;-88
2021/01/14 00:50:33;;;;;;;8.50;6.40;;;2.70;79.60;;;;;;5130452;28;20411;-89
2021/01/14 00:53:02;;;;;;;10.05;6.88;;;2.70;79.90;;;;;;5134283;28;20818;-88
2021/01/14 00:55:28;;;;;;;8.05;6.32;;;2.60;80.60;;;;;;5112425;28;20422;-88
2021/01/14 00:57:55;;;;;;;9.52;6.38;;;2.60;80.70;;;;;;5116142;28;20410;-88
2021/01/14 01:00:25;;;;;;;9.32;6.22;;;2.60;80.70;;;;;;5130838;28;20399;-88
2021/01/14 01:02:59;;;;;;;8.63;6.30;;;2.50;80.50;;;;;;5116903;28;20448;-89
2021/01/14 01:05:25;;;;;;;10.32;6.40;;;2.50;80.50;;;;;;5133799;28;20402;-89
2021/01/14 01:07:59;;;;;;;8.00;6.30;;;2.50;80.40;;;;;;5093581;28;20396;-89
2021/01/14 01:10:27;;;;;;;8.35;6.50;;;2.50;80.70;;;;;;5113523;28;20463;-89
2021/01/14 01:12:55;;;;;;;9.77;6.68;;;2.50;80.50;;;;;;5128522;28;20423;-89
2021/01/14 01:15:23;;;;;;;8.18;6.30;;;2.50;80.30;;;;;;5134163;28;20437;-89
2021/01/14 01:17:50;;;;;;;8.95;6.00;;;2.50;80.20;;;;;;5117408;28;20415;-89
2021/01/14 01:20:16;;;;;;;10.07;6.20;;;2.50;80.10;;;;;;5113021;28;20438;-89
2021/01/14 01:22:43;;;;;;;15.23;6.28;;;2.50;79.80;;;;;;5100334;28;20404;-89
2021/01/14 01:25:10;;;;;;;7.15;6.07;;;2.50;80.00;;;;;;5112069;28;20443;-89
2021/01/14 01:27:37;;;;;;;8.27;5.73;;;2.40;79.10;;;;;;5106109;28;20401;-89
2021/01/14 01:30:06;;;;;;;11.70;6.05;;;2.40;78.40;;;;;;5096237;28;20491;-89
2021/01/14 01:32:33;;;;;;;8.50;5.82;;;2.40;78.10;;;;;;5100398;27;20501;-89
2021/01/14 01:35:00;;;;;;;8.38;5.88;;;2.40;77.70;;;;;;5119292;27;20398;-89
2021/01/14 01:37:26;;;;;;;8.40;5.80;;;2.40;78.20;;;;;;5116076;27;20399;-89
2021/01/14 01:39:53;;;;;;;8.90;5.90;;;2.40;77.80;;;;;;5117359;28;20392;-89
2021/01/14 01:42:19;;;;;;;7.75;5.72;;;2.40;77.30;;;;;;5098718;28;20416;-90
2021/01/14 01:44:45;;;;;;;8.93;5.40;;;2.30;77.80;;;;;;5097251;28;20461;-89
2021/01/14 01:47:12;;;;;;;9.20;5.90;;;2.30;77.50;;;;;;5098760;28;20393;-89
2021/01/14 01:49:41;;;;;;;9.82;6.05;;;2.20;77.70;;;;;;5097551;28;20784;-90
2021/01/14 01:52:08;;;;;;;9.27;6.10;;;2.20;77.70;;;;;;5098541;28;20423;-90
2021/01/14 01:54:37;;;;;;;10.20;5.88;;;2.20;78.00;;;;;;5097234;28;20401;-89
2021/01/14 01:57:05;;;;;;;9.77;6.03;;;2.20;77.90;;;;;;5115967;28;20446;-89
2021/01/14 01:59:35;;;;;;;9.65;5.97;;;2.20;78.20;;;;;;5100674;28;20474;-89
2021/01/14 02:02:22;;;;;;;8.73;6.07;;;2.10;78.20;;;;;;5115623;28;20404;-89
2021/01/14 02:04:49;;;;;;;9.30;5.90;;;2.10;79.00;;;;;;5108573;28;20427;-89
2021/01/14 02:07:26;;;;;;;12.18;8.25;;;2.20;79.20;;;;;;5098508;28;20400;-89
2021/01/14 02:09:55;;;;;;;9.52;6.53;;;2.20;79.60;;;;;;5098156;28;20962;-89
2021/01/14 02:12:30;;;;;;;9.80;6.68;;;2.20;80.40;;;;;;5115360;28;20416;-88
2021/01/14 02:15:01;;;;;;;9.50;6.70;;;2.10;81.30;;;;;;5118656;27;20807;-88
2021/01/14 02:17:28;;;;;;;10.25;6.90;;;2.20;81.30;;;;;;5118731;27;20858;-89
2021/01/14 02:19:57;;;;;;;9.60;6.72;;;2.10;81.90;;;;;;5132977;27;20471;-88
2021/01/14 02:22:37;;;;;;;8.85;6.40;;;2.20;81.40;;;;;;5097867;28;20465;-88
2021/01/14 02:25:12;;;;;;;8.93;6.40;;;2.00;81.90;;;;;;5113640;28;20444;-87
2021/01/14 02:27:40;;;;;;;11.48;6.60;;;2.10;81.70;;;;;;5094598;28;20401;-88
2021/01/14 02:30:10;;;;;;;10.80;6.60;;;2.10;81.70;;;;;;5095006;28;20409;-87
2021/01/14 02:32:37;;;;;;;9.60;6.30;;;2.00;82.00;;;;;;5113937;27;20419;-88
2021/01/14 02:35:05;;;;;;;9.65;6.22;;;2.00;81.90;;;;;;5117373;27;20414;-88
2021/01/14 02:37:31;;;;;;;9.13;5.90;;;2.00;81.90;;;;;;5100013;28;20900;-88
2021/01/14 02:39:57;;;;;;;8.10;5.63;;;2.10;81.50;;;;;;5096532;28;20404;-88
2021/01/14 02:42:24;;;;;;;7.93;6.07;;;2.20;81.00;;;;;;5125841;27;20463;-88
2021/01/14 02:44:50;;;;;;;10.27;6.10;;;2.20;80.90;;;;;;5117703;27;20390;-88
2021/01/14 02:47:18;;;;;;;9.20;5.97;;;2.20;81.10;;;;;;5114847;27;20410;-88
2021/01/14 02:49:50;;;;;;;9.40;5.65;;;2.20;81.50;;;;;;5135358;27;20394;-88
2021/01/14 02:52:17;;;;;;;6.88;5.63;;;2.30;81.40;;;;;;5126157;27;20473;-88
2021/01/14 02:54:44;;;;;;;11.13;5.97;;;2.30;81.40;;;;;;5113702;28;20397;-88
2021/01/14 02:57:14;;;;;;;7.60;5.90;;;2.30;81.30;;;;;;5113115;28;20865;-88
2021/01/14 02:59:40;;;;;;;8.20;5.80;;;2.40;81.10;;;;;;5096623;28;20432;-89
2021/01/14 03:02:07;;;;;;;8.38;5.72;;;2.40;81.20;;;;;;5095664;28;20401;-89
2021/01/14 03:04:33;;;;;;;7.25;5.30;;;2.40;81.40;;;;;;5113836;28;20465;-89
2021/01/14 03:07:00;;;;;;;7.90;5.60;;;2.40;81.30;;;;;;5097036;28;20396;-89
2021/01/14 03:09:27;;;;;;;8.45;5.55;;;2.50;80.60;;;;;;5110686;27;20418;-89
2021/01/14 03:11:53;;;;;;;7.95;5.65;;;2.50;80.30;;;;;;5134794;27;20422;-89
2021/01/14 03:14:20;;;;;;;8.20;5.45;;;2.60;80.20;;;;;;5110776;28;20450;-89
2021/01/14 03:16:47;;;;;;;6.50;5.28;;;2.50;80.40;;;;;;5113134;28;20461;-89
2021/01/14 03:19:13;;;;;;;7.80;5.28;;;2.50;80.40;;;;;;5104537;28;20420;-89
2021/01/14 03:21:42;;;;;;;6.82;5.07;;;2.70;80.40;;;;;;5096352;28;20487;-89
2021/01/14 03:24:09;;;;;;;7.63;5.40;;;2.60;80.30;;;;;;5112077;28;20461;-89
2021/01/14 03:26:36;;;;;;;7.28;5.15;;;2.60;80.70;;;;;;5114004;28;20396;-88
2021/01/14 03:29:03;;;;;;;7.07;4.88;;;2.70;80.30;;;;;;5094121;28;20419;-89
2021/01/14 03:31:29;;;;;;;6.90;4.87;;;2.80;80.30;;;;;;5114039;28;20473;-88
2021/01/14 03:33:56;;;;;;;7.28;4.80;;;2.80;80.20;;;;;;5111632;28;20429;-88
2021/01/14 03:36:22;;;;;;;7.25;4.80;;;2.80;80.20;;;;;;5095714;28;20396;-88
2021/01/14 03:38:49;;;;;;;6.77;5.00;;;2.80;80.70;;;;;;5096228;28;20457;-90
2021/01/14 03:41:17;;;;;;;6.82;5.35;;;2.80;83.50;;;;;;5094577;28;20416;-90
2021/01/14 03:43:45;;;;;;;7.67;5.53;;;2.70;84.90;;;;;;5095879;28;20750;-88
2021/01/14 03:46:13;;;;;;;6.90;5.70;;;2.60;86.00;;;;;;5107895;27;20428;-88
2021/01/14 03:48:45;;;;;;;7.45;6.35;;;2.60;86.90;;;;;;5134324;27;20429;-88
2021/01/14 03:51:14;;;;;;;8.10;6.22;;;2.60;87.90;;;;;;5102906;28;20393;-88
2021/01/14 03:53:41;;;;;;;7.35;6.40;;;2.50;88.60;;;;;;5113400;28;20457;-88
2021/01/14 03:56:07;;;;;;;8.95;6.05;;;2.40;89.10;;;;;;5111550;28;20812;-88
2021/01/14 03:58:34;;;;;;;9.70;5.57;;;2.40;88.30;;;;;;5114151;28;20430;-88
2021/01/14 04:01:01;;;;;;;7.95;5.80;;;2.50;87.70;;;;;;5116476;27;20486;-88
2021/01/14 04:03:28;;;;;;;6.77;5.60;;;2.50;87.90;;;;;;5133767;27;20455;-88
2021/01/14 04:05:54;;;;;;;6.60;5.25;;;2.50;87.30;;;;;;5130873;27;21179;-88
2021/01/14 04:08:21;;;;;;;7.10;5.53;;;2.50;87.30;;;;;;5116133;27;20391;-88
2021/01/14 04:10:48;;;;;;;8.43;5.47;;;2.60;87.00;;;;;;5133585;27;20414;-88
2021/01/14 04:13:15;;;;;;;7.65;5.57;;;2.60;86.80;;;;;;5095098;28;20420;-88
2021/01/14 04:15:42;;;;;;;7.83;5.67;;;2.60;86.90;;;;;;5095791;28;20404;-88
2021/01/14 04:18:08;;;;;;;6.57;5.53;;;2.60;86.50;;;;;;5126133;27;20526;-89
2021/01/14 04:20:38;;;;;;;6.55;5.13;;;2.70;85.60;;;;;;5130064;27;20396;-88
2021/01/14 04:23:05;;;;;;;7.63;5.20;;;2.70;85.20;;;;;;5111233;28;20808;-88
2021/01/14 04:25:31;;;;;;;6.05;5.22;;;2.70;85.20;;;;;;5095222;28;20847;-88
2021/01/14 04:28:01;;;;;;;7.03;5.10;;;2.70;84.90;;;;;;5111153;28;20400;-88
2021/01/14 04:30:32;;;;;;;3.13;2.22;;;2.70;86.70;;;;;;5095508;28;20808;-88
2021/01/14 04:33:10;;;;;;;4.93;1.90;;;2.50;89.20;;;;;;5093594;28;20477;-88
2021/01/14 04:35:51;;;;;;;1.90;1.38;;;2.10;90.20;;;;;;5095424;28;20388;-89
2021/01/14 04:38:22;;;;;;;3.75;1.50;;;1.80;90.80;;;;;;5117518;28;20395;-89
2021/01/14 04:41:00;;;;;;;2.17;1.27;;;1.50;91.30;;;;;;5115715;28;20869;-89
2021/01/14 04:43:34;;;;;;;3.55;1.60;;;1.40;91.60;;;;;;5109339;28;20981;-89
2021/01/14 04:46:06;;;;;;;3.25;1.42;;;1.20;92.50;;;;;;5112439;28;20400;-89
2021/01/14 04:48:43;;;;;;;2.75;1.50;;;1.10;93.10;;;;;;5111247;28;20784;-89
2021/01/14 04:51:11;;;;;;;3.17;1.47;;;1.00;92.90;;;;;;5095269;28;20400;-88
2021/01/14 04:53:40;;;;;;;3.60;1.30;;;1.00;92.80;;;;;;5093217;28;21095;-89
2021/01/14 04:56:08;;;;;;;2.17;1.00;;;0.90;92.30;;;;;;5094972;28;20992;-89
2021/01/14 04:58:36;;;;;;;3.80;1.20;;;0.80;91.90;;;;;;5112802;28;20389;-87
2021/01/14 05:01:23;;;;;;;2.97;1.10;;;0.80;91.70;;;;;;5112357;28;21289;-87
2021/01/14 05:03:51;;;;;;;2.75;1.40;;;0.80;90.90;;;;;;5115588;28;20860;-87
2021/01/14 05:06:20;;;;;;;4.30;1.40;;;0.90;90.60;;;;;;5114944;28;20407;-88
2021/01/14 05:09:00;;;;;;;2.53;1.80;;;0.90;90.20;;;;;;5098544;28;20411;-88
2021/01/14 05:11:36;;;;;;;3.95;2.78;;;1.10;89.50;;;;;;5096827;28;20416;-87
2021/01/14 05:14:03;;;;;;;6.00;3.20;;;1.10;89.40;;;;;;5116975;28;20420;-88
2021/01/14 05:16:32;;;;;;;4.10;2.80;;;1.10;89.30;;;;;;5112110;27;20410;-88
2021/01/14 05:18:59;;;;;;;4.05;2.55;;;1.20;88.90;;;;;;5137506;27;20424;-88
2021/01/14 05:21:33;;;;;;;3.60;2.20;;;1.20;88.10;;;;;;5121711;27;20408;-88
2021/01/14 05:24:10;;;;;;;5.45;2.45;;;1.30;87.30;;;;;;5098973;28;20465;-88
2021/01/14 05:26:36;;;;;;;7.43;2.40;;;1.30;86.70;;;;;;5107515;27;20421;-88
2021/01/14 05:29:20;;;;;;;2.63;2.25;;;1.20;86.80;;;;;;5119220;27;20398;-88
2021/01/14 05:31:51;;;;;;;4.15;2.50;;;1.10;86.70;;;;;;5105657;28;20420;-88
2021/01/14 05:34:18;;;;;;;4.97;2.65;;;1.10;86.70;;;;;;5098646;28;20501;-89
2021/01/14 05:36:54;;;;;;;5.32;2.97;;;1.20;86.70;;;;;;5114899;27;20404;-89
2021/01/14 05:39:22;;;;;;;4.97;2.92;;;1.10;86.80;;;;;;5098662;28;20844;-89
2021/01/14 05:41:49;;;;;;;6.05;3.05;;;1.20;86.70;;;;;;5096341;28;20404;-90
2021/01/14 05:44:17;;;;;;;4.88;3.00;;;1.20;86.50;;;;;;5098291;28;21135;-89
2021/01/14 05:46:43;;;;;;;6.03;3.70;;;1.10;87.10;;;;;;5096806;28;20534;-89
2021/01/14 05:49:12;;;;;;;7.15;3.25;;;1.10;87.60;;;;;;5115140;28;20405;-89
2021/01/14 05:51:40;;;;;;;5.10;3.60;;;1.10;88.10;;;;;;5115337;28;20888;-89
2021/01/14 05:54:13;;;;;;;5.80;4.05;;;1.20;88.10;;;;;;5114481;28;20396;-88
2021/01/14 05:56:54;;;;;;;6.57;4.50;;;1.10;89.20;;;;;;5115919;28;20731;-89
2021/01/14 05:59:33;;;;;;;7.82;4.43;;;1.00;89.40;;;;;;5111218;28;20430;-88
2021/01/14 06:02:00;;;;;;;8.45;4.75;;;1.00;89.90;;;;;;5114933;28;20404;-89
2021/01/14 06:04:29;;;;;;;9.67;5.30;;;1.10;89.40;;;;;;5095931;28;21061;-89
2021/01/14 06:07:02;;;;;;;12.23;5.75;;;1.00;89.50;;;;;;5097800;28;20405;-88
2021/01/14 06:09:28;;;;;;;9.57;4.97;;;1.10;89.40;;;;;;5095889;28;20420;-90
2021/01/14 06:12:10;;;;;;;6.80;4.30;;;1.00;89.20;;;;;;5115466;28;20427;-89
2021/01/14 06:14:38;;;;;;;8.65;4.82;;;0.90;89.50;;;;;;5127566;27;20484;-89
2021/01/14 06:17:05;;;;;;;10.32;4.43;;;0.90;89.80;;;;;;5117727;27;20620;-89
2021/01/14 06:19:33;;;;;;;9.57;4.40;;;1.00;88.80;;;;;;5114864;27;20407;-88
2021/01/14 06:22:03;;;;;;;7.97;4.55;;;1.00;89.30;;;;;;5102404;28;20424;-88
2021/01/14 06:24:37;;;;;;;9.13;5.38;;;1.10;88.60;;;;;;5114118;27;20404;-88
2021/01/14 06:27:04;;;;;;;8.13;4.78;;;1.10;87.50;;;;;;5115120;28;20408;-88
2021/01/14 06:29:32;;;;;;;6.68;4.50;;;1.00;87.10;;;;;;5113305;28;20467;-88
2021/01/14 06:32:04;;;;;;;10.57;5.30;;;1.10;87.50;;;;;;5114334;28;20431;-88
2021/01/14 06:34:32;;;;;;;9.32;5.32;;;1.00;88.20;;;;;;5114901;27;20401;-89
2021/01/14 06:37:12;;;;;;;8.18;4.40;;;1.10;87.60;;;;;;5109100;28;20507;-94
2021/01/14 06:39:58;;;;;;;7.30;4.40;;;1.20;86.90;;;;;;5101044;28;20408;-95
2021/01/14 06:42:31;;;;;;;7.93;4.72;;;1.30;87.10;;;;;;5131593;27;20416;-95
2021/01/14 06:45:07;;;;;;;8.07;5.53;;;1.30;87.60;;;;;;5116985;28;20792;-94
2021/01/14 06:47:46;;;;;;;9.25;5.28;;;1.30;87.60;;;;;;5114421;28;20400;-91
2021/01/14 06:50:21;;;;;;;8.57;4.93;;;1.40;88.50;;;;;;5114516;28;20522;-91
2021/01/14 06:53:00;;;;;;;10.57;5.13;;;1.40;86.40;;;;;;5097468;28;20416;-89
2021/01/14 06:55:30;;;;;;;7.82;4.50;;;1.40;85.70;;;;;;5095127;27;20489;-91
2021/01/14 06:58:13;;;;;;;6.88;4.07;;;1.40;83.70;;;;;;5119217;27;20411;-89
2021/01/14 07:00:47;;;;;;;7.63;4.22;;;1.40;83.60;;;;;;5115501;27;20468;-91
2021/01/14 07:03:17;;;;;;;8.98;4.10;;;1.40;82.60;;;;;;5077039;28;20718;-87
2021/01/14 07:05:53;;;;;;;9.00;3.40;;;1.40;83.30;;;;;;5076693;28;20741;-91
2021/01/14 07:08:23;;;;;;;7.20;3.67;;;1.40;80.60;;;;;;5095296;28;20454;-90
2021/01/14 07:11:02;;;;;;;7.10;3.60;;;1.40;81.20;;;;;;5096793;28;20404;-90
2021/01/14 07:13:33;;;;;;;5.20;3.00;;;1.50;80.70;;;;;;5094738;28;20428;-90
2021/01/14 07:16:01;;;;;;;6.25;2.97;;;1.60;80.00;;;;;;5114710;28;20393;-91
2021/01/14 07:18:31;;;;;;;7.20;2.88;;;1.60;79.80;;;;;;5111983;28;20404;-90
2021/01/14 07:21:08;;;;;;;6.82;2.60;;;1.50;78.50;;;;;;5114402;28;20453;-90
2021/01/14 07:23:41;;;;;;;7.80;2.65;;;1.40;78.60;;;;;;5095259;28;20424;-86
2021/01/14 07:26:08;;;;;;;7.13;2.92;;;1.40;78.70;;;;;;5096428;28;20449;-90
2021/01/14 07:28:36;;;;;;;6.03;2.90;;;1.40;78.90;;;;;;5111694;28;20532;-89
2021/01/14 07:31:22;;;;;;;7.28;3.10;;;1.30;79.10;;;;;;5096670;28;20435;-90
2021/01/14 07:33:49;;;;;;;7.15;2.80;;;1.30;79.40;;;;;;5094854;28;20926;-91
2021/01/14 07:36:28;;;;;;;6.88;2.90;;;1.40;79.80;;;;;;5096375;28;20412;-90
2021/01/14 07:38:59;;;;;;;6.50;3.17;;;1.40;80.30;;;;;;5100909;28;20772;-92
2021/01/14 07:41:25;;;;;;;7.22;3.00;;;1.30;80.90;;;;;;5113750;28;20413;-92
2021/01/14 07:43:52;;;;;;;9.73;2.88;;;1.40;80.50;;;;;;5111596;28;20416;-89
2021/01/14 07:46:25;;;;;;;10.43;2.90;;;1.40;79.30;;;;;;5095508;28;20452;-89
2021/01/14 07:48:53;;;;;;;9.80;3.05;;;1.40;79.60;;;;;;5094800;28;20412;-90
2021/01/14 07:51:21;;;;;;;7.00;3.28;;;1.30;80.30;;;;;;5113748;28;20420;-90
2021/01/14 07:54:07;;;;;;;7.72;3.60;;;1.20;81.20;;;;;;5112177;28;20427;-91
2021/01/14 07:56:51;;;;;;;7.70;3.53;;;1.30;81.00;;;;;;5113241;28;20400;-89
2021/01/14 07:59:33;;;;;;;11.13;4.38;;;1.40;81.80;;;;;;5093496;28;20439;-87
2021/01/14 08:02:02;;;;;;;8.35;4.03;;;1.30;81.70;;;;;;5101244;28;20758;-89
2021/01/14 08:04:28;;;;;;;8.57;3.40;;;1.30;82.20;;;;;;5094154;28;20428;-90
2021/01/14 08:06:55;;;;;;;9.13;4.50;;;1.40;81.20;;;;;;5112957;28;20412;-88
2021/01/14 08:09:22;;;;;;;6.72;3.60;;;1.40;80.90;;;;;;5112362;28;20465;-92
2021/01/14 08:11:51;;;;;;;7.70;2.75;;;1.40;78.80;;;;;;5114104;28;20392;-90
2021/01/14 08:14:34;;;;;;;8.48;2.70;;;1.30;78.60;;;;;;5113782;28;20481;-89
2021/01/14 08:17:20;;;;;;;6.57;2.30;;;1.40;76.80;;;;;;5112824;27;20406;-91
2021/01/14 08:19:47;;;;;;;8.25;2.25;;;1.50;76.80;;;;;;5133637;27;20455;-89
2021/01/14 08:22:14;;;;;;;6.35;2.10;;;1.40;75.80;;;;;;5095993;28;20469;-94
2021/01/14 08:24:45;;;;;;;7.50;2.10;;;1.50;74.40;;;;;;5115075;28;20404;-94
2021/01/14 08:27:32;;;;;;;6.25;1.80;;;1.30;74.20;;;;;;5095562;28;20404;-92
2021/01/14 08:30:06;;;;;;;7.78;2.05;;;1.30;75.70;;;;;;5095574;28;20435;-91
2021/01/14 08:32:36;;;;;;;9.27;2.65;;;1.30;74.50;;;;;;5109035;28;20426;-90
2021/01/14 08:35:34;;;;;;;7.13;2.60;;;1.30;75.30;;;;;;5119240;28;20489;-91
2021/01/14 08:38:07;;;;;;;8.30;2.17;;;1.40;74.50;;;;;;5096632;28;20396;-90
2021/01/14 08:40:38;;;;;;;9.88;2.80;;;1.30;75.10;;;;;;5099560;28;20422;-89
2021/01/14 08:43:16;;;;;;;6.65;2.90;;;1.30;74.90;;;;;;5115856;28;20434;-89
2021/01/14 08:45:54;;;;;;;12.88;4.63;;;1.30;75.70;;;;;;5090108;28;20413;-89
2021/01/14 08:48:22;;;;;;;12.85;5.20;;;1.30;76.40;;;;;;5093324;28;20469;-90
2021/01/14 08:50:55;;;;;;;8.15;3.10;;;1.40;76.90;;;;;;5099169;28;20886;-89
2021/01/14 08:53:21;;;;;;;8.53;3.07;;;1.40;76.90;;;;;;5097698;28;20444;-89
2021/01/14 08:55:55;;;;;;;7.07;2.60;;;1.40;77.20;;;;;;5099170;28;20868;-88
2021/01/14 08:58:35;;;;;;;8.15;2.60;;;1.50;76.80;;;;;;5115177;28;20454;-89
2021/01/14 09:01:02;;;;;;;7.82;3.10;;;1.60;76.30;;;;;;5116909;28;20473;-90
2021/01/14 09:03:29;;;;;;;6.87;2.70;;;1.70;76.60;;;;;;5108400;28;20917;-90
2021/01/14 09:05:56;;;;;;;8.57;2.42;;;1.70;75.90;;;;;;5099535;28;20409;-91
2021/01/14 09:08:22;;;;;;;6.38;2.42;;;1.60;76.10;;;;;;5097188;28;20851;-91
2021/01/14 09:10:54;;;;;;;7.18;2.50;;;1.70;76.10;;;;;;5117088;28;20404;-92
2021/01/14 09:13:23;;;;;;;11.32;2.67;;;1.70;75.90;;;;;;5082553;27;20422;-90
2021/01/14 09:15:53;;;;;;;8.02;3.05;;;1.70;75.60;;;;;;5098845;28;20396;-90
2021/01/14 09:18:30;;;;;;;9.37;3.10;;;1.70;74.50;;;;;;5115526;28;20723;-91
2021/01/14 09:21:01;;;;;;;8.90;2.20;;;1.70;75.00;;;;;;5085424;28;20411;-90
2021/01/14 09:23:35;;;;;;;6.93;2.25;;;1.80;74.50;;;;;;5098886;28;20397;-90
2021/01/14 09:26:20;;;;;;;6.22;1.80;;;1.90;74.20;;;;;;5115676;28;20400;-90
2021/01/14 09:28:52;;;;;;;8.18;1.80;;;1.90;73.30;;;;;;5098360;28;20423;-89
2021/01/14 09:31:19;;;;;;;7.53;1.70;;;1.90;74.00;;;;;;5115584;27;20445;-90
2021/01/14 09:33:48;;;;;;;6.97;1.95;;;2.00;73.50;;;;;;5116317;28;20416;-90
2021/01/14 09:36:16;;;;;;;9.00;1.77;;;1.90;73.60;;;;;;5096797;28;20452;-90
2021/01/14 09:38:46;;;;;;;7.43;2.00;;;1.80;72.80;;;;;;5098478;28;20442;-91
2021/01/14 09:41:19;;;;;;;6.20;1.92;;;1.90;74.10;;;;;;5114966;28;20450;-91
2021/01/14 09:43:48;;;;;;;8.27;2.10;;;2.00;73.90;;;;;;5098508;28;21171;-88
2021/01/14 09:46:15;;;;;;;9.98;2.20;;;2.10;74.10;;;;;;5114292;28;20404;-90
2021/01/14 09:48:42;;;;;;;8.40;2.23;;;2.10;73.00;;;;;;5116241;28;20445;-90
2021/01/14 09:51:16;;;;;;;9.93;2.13;;;2.20;73.80;;;;;;5095870;28;20416;-89
2021/01/14 09:53:49;;;;;;;7.65;2.20;;;2.30;72.70;;;;;;5098216;28;20420;-91
2021/01/14 09:56:42;;;;;;;5.10;1.70;;;2.30;71.80;;;;;;5097368;28;20412;-90
2021/01/14 09:59:15;;;;;;;5.90;1.95;;;2.30;71.30;;;;;;5098646;28;20804;-89
2021/01/14 10:01:47;;;;;;;7.93;1.80;;;2.30;71.40;;;;;;5096411;28;20400;-89
2021/01/14 10:04:17;;;;;;;9.00;1.80;;;2.30;71.50;;;;;;5098334;28;20401;-88
2021/01/14 10:06:51;;;;;;;8.25;2.10;;;2.40;71.20;;;;;;5102392;27;20947;-89
2021/01/14 10:09:20;;;;;;;5.22;1.80;;;2.30;70.60;;;;;;5118018;27;20423;-90
2021/01/14 10:11:47;;;;;;;6.78;1.70;;;2.30;71.00;;;;;;5129690;27;20400;-90
2021/01/14 10:14:18;;;;;;;4.90;1.50;;;2.30;70.60;;;;;;5115705;28;20420;-90
2021/01/14 10:16:46;;;;;;;5.93;1.67;;;2.40;70.70;;;;;;5095705;28;20397;-89
2021/01/14 10:19:15;;;;;;;6.00;1.60;;;2.30;70.80;;;;;;5097977;28;20397;-91
2021/01/14 10:21:43;;;;;;;4.38;1.52;;;2.30;70.40;;;;;;5116246;28;20428;-92
2021/01/14 10:24:25;;;;;;;4.93;1.50;;;2.40;69.50;;;;;;5113473;28;20416;-93
2021/01/14 10:26:53;;;;;;;6.45;1.80;;;2.30;69.70;;;;;;5117123;28;20457;-93
2021/01/14 10:29:31;;;;;;;6.32;1.60;;;2.20;69.80;;;;;;5100741;28;20747;-93
2021/01/14 10:32:06;;;;;;;7.30;1.63;;;2.20;70.40;;;;;;5101748;28;20408;-93
2021/01/14 10:34:56;;;;;;;5.22;1.55;;;2.30;69.90;;;;;;5100543;28;20412;-95
2021/01/14 10:37:30;;;;;;;7.10;1.70;;;2.10;69.60;;;;;;5091724;28;20823;-94
2021/01/14 10:39:58;;;;;;;3.47;1.70;;;2.20;69.40;;;;;;5101056;28;20416;-92
2021/01/14 10:42:35;;;;;;;5.30;1.60;;;2.10;68.70;;;;;;5102334;28;20416;-96
2021/01/14 10:45:12;;;;;;;4.88;1.70;;;2.20;70.90;;;;;;5102666;28;20827;-92
2021/01/14 10:47:41;;;;;;;4.43;1.60;;;2.20;70.80;;;;;;5098290;28;20469;-92
2021/01/14 10:50:20;;;;;;;6.20;1.67;;;2.10;69.80;;;;;;5099592;28;20397;-94
2021/01/14 10:52:58;;;;;;;8.60;1.83;;;2.10;69.90;;;;;;5101833;28;20936;-95
2021/01/14 10:55:29;;;;;;;5.32;1.75;;;2.10;70.20;;;;;;5103829;28;20431;-96
2021/01/14 10:58:07;;;;;;;5.45;1.50;;;2.10;70.50;;;;;;5105369;28;20434;-95
2021/01/14 11:00:40;;;;;;;4.43;1.60;;;2.20;69.90;;;;;;5101601;28;20438;-93
2021/01/14 11:03:14;;;;;;;5.07;1.65;;;2.20;69.40;;;;;;5103480;28;20469;-96
2021/01/14 11:05:51;;;;;;;4.90;1.95;;;2.20;69.50;;;;;;5106228;28;20523;-92
2021/01/14 11:08:22;;;;;;;9.60;1.92;;;2.20;68.80;;;;;;5097244;28;20439;-92
2021/01/14 11:11:02;;;;;;;5.43;1.40;;;2.20;69.10;;;;;;5102353;28;20449;-91
2021/01/14 11:13:47;;;;;;;7.00;1.95;;;2.10;68.80;;;;;;5114135;28;20450;-91
2021/01/14 11:16:16;;;;;;;4.72;1.70;;;2.00;69.80;;;;;;5112556;28;20449;-93
2021/01/14 11:18:50;;;;;;;3.17;1.45;;;2.00;69.80;;;;;;5114585;28;20865;-90
2021/01/14 11:21:24;;;;;;;5.78;1.70;;;2.10;70.00;;;;;;5112947;27;20461;-92
2021/01/14 11:23:51;;;;;;;4.40;1.50;;;2.10;69.30;;;;;;5113858;28;20408;-90
2021/01/14 11:26:20;;;;;;;6.95;1.75;;;2.10;68.80;;;;;;5106645;28;20408;-90
2021/01/14 11:28:47;;;;;;;7.60;1.83;;;2.10;68.90;;;;;;5096262;28;20432;-90
2021/01/14 11:31:15;;;;;;;4.78;1.60;;;2.10;68.60;;;;;;5098662;27;20407;-90
2021/01/14 11:33:42;;;;;;;5.45;1.70;;;2.10;69.20;;;;;;5134603;27;20456;-90
2021/01/14 11:36:13;;;;;;;6.40;1.77;;;2.10;69.20;;;;;;5131312;27;20438;-90
2021/01/14 11:38:42;;;;;;;4.35;1.65;;;2.10;69.20;;;;;;5096474;28;20396;-90
2021/01/14 11:41:09;;;;;;;5.73;1.77;;;2.00;69.50;;;;;;5113920;28;20404;-90
2021/01/14 11:43:37;;;;;;;5.18;1.40;;;2.00;69.30;;;;;;5094953;28;20773;-91
2021/01/14 11:46:04;;;;;;;3.53;1.50;;;2.10;68.90;;;;;;5096153;28;21227;-90
2021/01/14 11:48:31;;;;;;;4.30;1.73;;;2.20;69.20;;;;;;5127730;27;20451;-90
2021/01/14 11:50:57;;;;;;;6.93;1.63;;;2.20;69.00;;;;;;5126687;27;20490;-90
2021/01/14 11:53:24;;;;;;;5.88;1.80;;;2.20;68.70;;;;;;5113066;28;20454;-93
2021/01/14 11:55:58;;;;;;;4.30;1.73;;;2.20;70.10;;;;;;5114478;28;20740;-96
2021/01/14 11:58:25;;;;;;;6.18;1.75;;;2.30;69.00;;;;;;5106084;28;20450;-91
2021/01/14 12:00:52;;;;;;;4.40;1.70;;;2.30;69.20;;;;;;5077735;28;20961;-92
2021/01/14 12:03:20;;;;;;;4.13;1.45;;;2.30;69.10;;;;;;5084562;28;20412;-94
2021/01/14 12:05:48;;;;;;;3.60;1.60;;;2.30;69.10;;;;;;5098687;28;20416;-93
2021/01/14 12:08:17;;;;;;;5.20;1.70;;;2.20;68.30;;;;;;5105296;28;20444;-93
2021/01/14 12:10:43;;;;;;;5.30;1.77;;;2.20;69.60;;;;;;5096465;28;20450;-94
2021/01/14 12:13:10;;;;;;;4.28;1.67;;;2.30;69.50;;;;;;5097961;28;20413;-94
2021/01/14 12:15:37;;;;;;;8.73;2.00;;;2.30;68.80;;;;;;5099714;28;20412;-94
2021/01/14 12:18:03;;;;;;;5.30;1.50;;;2.20;69.00;;;;;;5100903;28;20430;-96
2021/01/14 12:20:29;;;;;;;7.60;1.70;;;2.20;68.70;;;;;;5100350;28;20919;-96
2021/01/14 12:22:56;;;;;;;4.15;1.80;;;2.10;69.60;;;;;;5101491;28;20465;-95
2021/01/14 12:25:22;;;;;;;4.80;1.90;;;2.10;70.00;;;;;;5101065;28;20417;-96
2021/01/14 12:27:52;;;;;;;5.47;1.80;;;2.10;69.30;;;;;;5102132;28;20805;-96
2021/01/14 12:30:22;;;;;;;3.22;1.63;;;2.20;69.20;;;;;;5101471;28;20408;-96
2021/01/14 12:32:51;;;;;;;5.50;1.63;;;2.20;69.40;;;;;;5100652;28;20408;-96
2021/01/14 12:35:17;;;;;;;6.85;1.85;;;2.20;69.30;;;;;;5100155;28;20412;-96
2021/01/14 12:37:44;;;;;;;3.85;1.58;;;2.20;68.70;;;;;;5100964;28;20408;-96
2021/01/14 12:40:10;;;;;;;5.22;1.42;;;2.20;69.40;;;;;;5100092;28;20434;-96
2021/01/14 12:42:40;;;;;;;5.20;1.90;;;2.10;69.20;;;;;;5100264;28;20442;-95
2021/01/14 12:45:06;;;;;;;4.13;1.52;;;2.10;69.50;;;;;;5100940;28;20396;-96
2021/01/14 12:47:33;;;;;;;5.33;1.50;;;2.10;69.10;;;;;;5100130;28;20478;-95
2021/01/14 12:50:00;;;;;;;3.22;1.42;;;2.10;69.20;;;;;;5099685;28;20483;-96
2021/01/14 12:52:26;;;;;;;3.50;1.50;;;2.10;69.80;;;;;;5099483;28;20893;-93
2021/01/14 12:54:53;;;;;;;4.30;1.60;;;2.10;69.80;;;;;;5099890;28;20400;-96
2021/01/14 12:57:19;;;;;;;6.70;1.58;;;2.10;69.80;;;;;;5100889;28;20408;-96
2021/01/14 12:59:48;;;;;;;5.05;1.65;;;2.00;70.40;;;;;;5098966;28;20461;-89
2021/01/14 13:02:15;;;;;;;5.68;1.85;;;2.10;70.50;;;;;;5093214;28;20531;-93
2021/01/14 13:04:41;;;;;;;6.38;2.00;;;2.10;70.90;;;;;;5095370;28;20465;-92
2021/01/14 13:07:08;;;;;;;5.20;1.87;;;2.10;71.20;;;;;;5094286;28;20449;-91
2021/01/14 13:09:35;;;;;;;4.30;1.88;;;2.10;71.50;;;;;;5114155;28;20420;-95
2021/01/14 13:12:01;;;;;;;7.30;1.50;;;2.00;72.10;;;;;;5096611;28;20411;-95